Millenbeck, Virginia
Current Conditions -  °F | °C
As of 7:55 PM on Monday 24 Nov 2014 (Local Time) from KW75 Reporting Station
Broken Clouds Broken Clouds  
Wind Chill: 69°   Ceiling: 12000
Heat Index: 69°   Visibility: 10mi
Dew Point: 63°   Wind: 12mph
Humidity: 81%   Direction: 210°SSW
Pressure: 29.82"   Gusts: 18mph
Location:  37.7649°N, 76.5055°W
Report Text: KW75 250055Z AUTO 21010G16KT 160V220 10SM BKN120 20/17 A2982 RMK AO1 T02040170
Loading
Personal Weather Stations






























Interactive Weather Map New forecast layout! Learn more

10-Day Weather Forecast

Advertisements
Track Severe Weather on mobile